Time;durP1;ratioP1;P1;durP2;ratioP2;P2;SDS_P1;SDS_P2;PMS_P1;PMS_P2;Temp;Humidity;BMP_temperature;BMP_pressure;BME280_temperature;BME280_humidity;BME280_pressure;Samples;Min_cycle;Max_cycle;Signal;HPM_P1;HPM_P2
2021/09/30 00:01:07;;;;;;;26.50;16.90;;;;;;;3.18;100.00;100894.62;1731380;80;21962;-59
2021/09/30 00:03:33;;;;;;;25.72;17.17;;;;;;;3.16;100.00;100894.47;1774976;80;20853;-59
2021/09/30 00:06:00;;;;;;;22.10;16.50;;;;;;;3.14;100.00;100893.84;1775328;80;20912;-59
2021/09/30 00:08:28;;;;;;;25.87;17.80;;;;;;;3.13;100.00;100902.77;1775636;80;20972;-58
2021/09/30 00:11:04;;;;;;;26.45;16.85;;;;;;;3.13;100.00;100897.47;1775124;80;21007;-58
2021/09/30 00:48:10;;;;;;;32.08;18.77;;;;;;;2.87;100.00;100894.59;1757173;80;20910;-58
2021/09/30 00:51:01;;;;;;;25.72;17.62;;;;;;;2.87;100.00;100901.22;1755210;80;21317;-58
2021/09/30 00:55:55;;;;;;;29.45;18.85;;;;;;;2.84;100.00;100897.56;1784135;79;21003;-58
2021/09/30 01:52:06;;;;;;;37.30;22.45;;;;;;;2.65;100.00;100888.19;1660335;84;20944;-58
2021/09/30 02:20:31;;;;;;;39.20;22.80;;;;;;;2.56;100.00;100889.19;1742343;79;20886;-59
2021/09/30 02:58:39;;;;;;;38.67;24.12;;;;;;;2.37;100.00;100885.06;1652859;84;21470;-58
2021/09/30 03:01:11;;;;;;;37.58;22.93;;;;;;;2.36;100.00;100894.02;1670728;84;20977;-57
2021/09/30 03:03:41;;;;;;;37.15;26.97;;;;;;;2.35;100.00;100884.41;1684246;84;20948;-58
2021/09/30 03:06:08;;;;;;;41.50;25.80;;;;;;;2.34;100.00;100889.38;1674263;85;21054;-58
2021/09/30 03:08:42;;;;;;;37.38;24.40;;;;;;;2.34;100.00;100892.03;1673407;85;20960;-58
2021/09/30 03:11:04;;;;;;;41.33;25.30;;;;;;;2.32;100.00;100890.05;1655862;86;21130;-58
2021/09/30 03:13:31;;;;;;;40.20;24.35;;;;;;;2.35;100.00;100897.65;1764501;80;20860;-57
2021/09/30 03:16:06;;;;;;;42.15;26.20;;;;;;;2.39;100.00;100894.19;1785437;80;21433;-57
2021/09/30 03:18:48;;;;;;;42.78;24.67;;;;;;;2.39;100.00;100892.86;1783968;80;21007;-58
2021/09/30 03:23:31;;;;;;;39.30;24.72;;;;;;;2.44;100.00;100895.33;1784666;80;21390;-58
2021/09/30 03:25:58;;;;;;;37.30;22.67;;;;;;;2.43;100.00;100893.69;1785174;80;21445;-58
2021/09/30 03:28:27;;;;;;;39.17;24.97;;;;;;;2.40;100.00;100895.83;1785596;80;20920;-57
2021/09/30 03:30:55;;;;;;;41.77;22.60;;;;;;;2.36;100.00;100889.55;1785604;79;21383;-57
2021/09/30 03:33:23;;;;;;;41.80;24.32;;;;;;;2.40;100.00;100894.50;1785647;80;21023;-57
2021/09/30 03:36:02;;;;;;;38.53;22.55;;;;;;;2.38;100.00;100898.66;1783580;80;21122;-58
2021/09/30 03:38:29;;;;;;;36.20;24.12;;;;;;;2.47;100.00;100894.17;1785753;80;20872;-58
2021/09/30 03:40:55;;;;;;;42.50;24.72;;;;;;;2.46;100.00;100890.70;1785704;79;20943;-58
2021/09/30 03:43:24;;;;;;;43.38;25.32;;;;;;;2.44;100.00;100887.88;1785529;80;21034;-58
2021/09/30 03:45:51;;;;;;;38.85;24.55;;;;;;;2.40;100.00;100901.13;1785430;79;20959;-58
2021/09/30 03:48:19;;;;;;;42.23;25.35;;;;;;;2.35;100.00;100906.45;1790013;79;21157;-59
2021/09/30 04:01:28;;;;;;;40.98;24.87;;;;;;;2.33;100.00;100907.11;1799635;79;21139;-58
2021/09/30 04:03:55;;;;;;;38.25;25.10;;;;;;;2.32;100.00;100907.27;1799790;78;20934;-58
2021/09/30 04:06:22;;;;;;;39.98;24.45;;;;;;;2.35;100.00;100908.25;1800040;79;20966;-58
2021/09/30 04:08:49;;;;;;;43.48;23.73;;;;;;;2.33;100.00;100908.44;1799973;78;20899;-58
2021/09/30 04:11:16;;;;;;;40.35;24.95;;;;;;;2.32;100.00;100906.77;1773571;79;20851;-58
2021/09/30 04:13:43;;;;;;;44.20;24.95;;;;;;;2.32;100.00;100902.78;1800185;79;21159;-58
2021/09/30 04:16:10;;;;;;;40.88;24.57;;;;;;;2.33;100.00;100912.91;1800259;79;20954;-58
2021/09/30 04:18:39;;;;;;;35.92;23.32;;;;;;;2.36;100.00;100909.92;1800381;79;21409;-58
2021/09/30 04:21:05;;;;;;;45.88;24.72;;;;;;;2.41;100.00;100912.08;1800264;79;20820;-58
2021/09/30 04:23:32;;;;;;;36.85;24.63;;;;;;;2.41;100.00;100909.42;1800319;79;21473;-58
2021/09/30 04:25:59;;;;;;;37.75;24.23;;;;;;;2.44;100.00;100907.25;1800288;79;21051;-58
2021/09/30 04:28:26;;;;;;;36.17;23.70;;;;;;;2.51;100.00;100910.89;1800086;79;20863;-58
2021/09/30 04:30:54;;;;;;;40.35;23.32;;;;;;;2.54;100.00;100905.25;1799975;78;20969;-58
2021/09/30 04:33:23;;;;;;;36.13;24.52;;;;;;;2.57;100.00;100905.41;1800367;79;20915;-58
2021/09/30 04:35:52;;;;;;;38.80;24.67;;;;;;;2.61;100.00;100908.06;1799955;79;20986;-58
2021/09/30 04:38:21;;;;;;;39.25;24.35;;;;;;;2.69;100.00;100914.66;1799785;79;21858;-58
2021/09/30 04:40:49;;;;;;;42.33;24.87;;;;;;;2.85;100.00;100909.02;1800642;79;21026;-58
2021/09/30 04:43:16;;;;;;;35.13;24.10;;;;;;;3.03;100.00;100916.23;1799940;78;21565;-58
2021/09/30 04:45:43;;;;;;;34.38;23.95;;;;;;;3.18;100.00;100917.17;1799946;79;20879;-58
2021/09/30 04:48:13;;;;;;;39.40;24.47;;;;;;;3.36;100.00;100923.59;1797296;79;20967;-58
2021/09/30 04:50:40;;;;;;;34.55;22.60;;;;;;;3.52;100.00;100922.66;1785762;80;21203;-58
2021/09/30 04:53:06;;;;;;;38.58;22.80;;;;;;;3.70;100.00;100918.44;1785643;80;20979;-58
2021/09/30 04:55:36;;;;;;;33.30;22.10;;;;;;;3.82;100.00;100923.67;1785147;80;20998;-58
2021/09/30 04:58:03;;;;;;;29.80;19.57;;;;;;;3.96;100.00;100924.72;1785318;80;20888;-58
2021/09/30 05:00:30;;;;;;;33.63;21.52;;;;;;;4.08;100.00;100920.64;1785342;80;21450;-58
2021/09/30 05:03:18;;;;;;;30.50;19.27;;;;;;;4.20;100.00;100921.06;1785621;80;21571;-58
2021/09/30 05:05:44;;;;;;;30.15;19.15;;;;;;;4.42;100.00;100924.70;1784650;80;20809;-58
2021/09/30 05:08:12;;;;;;;29.12;19.23;;;;;;;4.66;100.00;100926.81;1750894;79;20940;-59
2021/09/30 05:10:42;;;;;;;25.70;17.55;;;;;;;4.83;100.00;100924.82;1790181;79;20956;-58
2021/09/30 05:13:17;;;;;;;33.48;19.77;;;;;;;4.96;100.00;100921.01;1776777;80;20985;-58
2021/09/30 05:15:40;;;;;;;26.90;18.17;;;;;;;5.04;100.00;100928.07;1795671;78;21119;-58
2021/09/30 05:18:11;;;;;;;42.73;21.73;;;;;;;5.22;100.00;100933.02;1791615;79;20936;-58
2021/09/30 05:20:40;;;;;;;31.10;20.23;;;;;;;5.48;100.00;100939.19;1796448;79;20940;-59
2021/09/30 05:23:07;;;;;;;31.42;20.15;;;;;;;5.68;100.00;100940.75;1781872;80;20940;-59
2021/09/30 05:25:34;;;;;;;62.70;35.63;;;;;;;5.71;100.00;100939.88;1772564;80;20995;-58
2021/09/30 05:28:04;;;;;;;32.70;19.65;;;;;;;5.83;100.00;100943.38;1779592;79;21700;-59
2021/09/30 05:30:32;;;;;;;27.10;17.73;;;;;;;6.07;100.00;100945.70;1788256;80;20889;-58
2021/09/30 05:33:00;;;;;;;21.35;16.60;;;;;;;6.18;100.00;100949.21;1813210;79;20937;-58
2021/09/30 05:35:30;;;;;;;24.60;17.00;;;;;;;6.28;100.00;100947.56;1804689;79;21014;-58
2021/09/30 05:37:57;;;;;;;26.07;16.77;;;;;;;6.50;100.00;100948.36;1787566;79;20940;-60
2021/09/30 05:40:26;;;;;;;37.63;22.13;;;;;;;6.50;100.00;100955.03;1778763;79;22082;-58
2021/09/30 05:42:54;;;;;;;31.27;18.42;;;;;;;6.75;100.00;100955.94;1771055;80;20877;-58
2021/09/30 05:45:21;;;;;;;78.65;38.28;;;;;;;7.09;100.00;100955.14;1760983;80;28106;-58
2021/09/30 05:48:05;;;;;;;49.65;25.70;;;;;;;7.26;100.00;100956.98;1683805;85;20978;-58
2021/09/30 05:50:32;;;;;;;50.08;23.47;;;;;;;7.42;100.00;100962.49;1683327;85;21078;-58
2021/09/30 05:53:06;;;;;;;174.80;64.62;;;;;;;7.54;100.00;100962.76;1678148;83;21146;-58
2021/09/30 05:55:52;;;;;;;171.47;71.85;;;;;;;7.78;100.00;100964.91;1706722;83;20985;-59
2021/09/30 05:58:19;;;;;;;263.90;131.00;;;;;;;8.00;100.00;100974.12;1682227;83;21001;-59
2021/09/30 06:00:55;;;;;;;95.12;59.65;;;;;;;8.04;100.00;100967.36;1669728;85;20938;-59
2021/09/30 06:04:08;;;;;;;37.15;26.25;;;;;;;8.31;100.00;100973.58;1671985;85;21489;-59
2021/09/30 06:11:19;;;;;;;30.08;22.10;;;;;;;8.61;100.00;100975.36;1647764;86;21507;-58
2021/09/30 06:16:16;;;;;;;20.32;15.93;;;;;;;9.04;100.00;100970.91;1647748;86;20886;-58
2021/09/30 06:18:40;;;;;;;25.08;14.75;;;;;;;9.25;100.00;100971.16;1623467;87;21757;-58
2021/09/30 06:21:07;;;;;;;22.62;14.85;;;;;;;9.40;100.00;100969.56;1651585;85;20943;-58
2021/09/30 06:23:34;;;;;;;23.05;16.15;;;;;;;9.62;100.00;100977.62;1681716;84;20960;-58
2021/09/30 06:26:01;;;;;;;22.85;15.88;;;;;;;9.64;100.00;100973.40;1680923;84;20931;-58
2021/09/30 06:28:31;;;;;;;24.15;18.07;;;;;;;9.85;100.00;100975.78;1674954;85;20907;-58
2021/09/30 06:31:00;;;;;;;24.52;15.63;;;;;;;9.98;100.00;100972.72;1660087;85;21135;-58
2021/09/30 06:33:46;;;;;;;20.65;15.72;;;;;;;9.98;100.00;100976.22;1658975;85;20960;-59
2021/09/30 06:36:15;;;;;;;19.85;15.50;;;;;;;9.93;100.00;100971.20;1642501;85;21009;-59
2021/09/30 06:38:41;;;;;;;21.87;15.68;;;;;;;9.95;100.00;100975.84;1659953;84;21000;-58
2021/09/30 06:41:10;;;;;;;20.35;15.35;;;;;;;10.12;100.00;100976.13;1658167;86;20882;-58
2021/09/30 06:43:38;;;;;;;25.52;17.92;;;;;;;10.01;100.00;100974.44;1658025;86;21143;-59
2021/09/30 06:46:13;;;;;;;34.65;17.40;;;;;;;10.12;100.00;100974.30;1673558;83;21589;-59
2021/09/30 06:48:47;;;;;;;24.10;16.85;;;;;;;10.27;100.00;100973.99;1726204;83;20928;-58
2021/09/30 06:51:17;;;;;;;22.02;15.63;;;;;;;10.64;100.00;100970.13;1733947;82;20968;-58
2021/09/30 06:53:46;;;;;;;23.83;15.35;;;;;;;10.81;100.00;100982.48;1729460;83;20957;-58
2021/09/30 06:56:20;;;;;;;18.62;14.07;;;;;;;10.67;100.00;100977.73;1729802;83;21381;-58
2021/09/30 06:59:05;;;;;;;18.37;13.72;;;;;;;10.81;100.00;100977.93;1758944;81;20865;-58
2021/09/30 07:01:47;;;;;;;16.80;13.22;;;;;;;11.20;100.00;100983.97;1755348;81;21020;-58
2021/09/30 07:04:35;;;;;;;21.15;14.95;;;;;;;11.24;100.00;100978.42;1685173;85;20923;-59
2021/09/30 07:07:10;;;;;;;17.85;13.58;;;;;;;11.22;100.00;100981.03;1685402;85;21059;-57
2021/09/30 07:09:39;;;;;;;18.07;12.90;;;;;;;11.36;100.00;100979.85;1685568;83;21024;-57
2021/09/30 07:12:07;;;;;;;24.77;15.30;;;;;;;11.29;100.00;100976.41;1693435;84;20957;-57
2021/09/30 07:14:34;;;;;;;41.70;23.95;;;;;;;11.26;100.00;100979.03;1669757;84;20977;-57
2021/09/30 07:17:00;;;;;;;23.67;14.47;;;;;;;11.22;100.00;100981.03;1695011;84;21021;-57
2021/09/30 07:19:27;;;;;;;27.37;13.18;;;;;;;11.14;100.00;100964.16;1695362;84;21068;-57
2021/09/30 07:21:53;;;;;;;19.15;12.70;;;;;;;11.22;100.00;100980.54;1695717;84;21119;-57
2021/09/30 07:24:20;;;;;;;23.30;11.60;;;;;;;11.36;100.00;100980.67;1694031;84;20990;-57
2021/09/30 07:26:46;;;;;;;16.57;12.07;;;;;;;11.58;100.00;100980.22;1694533;84;20899;-57
2021/09/30 07:29:12;;;;;;;19.65;12.45;;;;;;;11.48;100.00;100980.74;1693837;84;21033;-57
2021/09/30 07:31:39;;;;;;;18.12;11.88;;;;;;;11.87;100.00;100982.67;1693885;84;20969;-57
2021/09/30 07:34:11;;;;;;;18.35;10.93;;;;;;;11.82;100.00;100984.38;1694548;84;21970;-58
2021/09/30 07:36:35;;;;;;;18.45;12.13;;;;;;;11.85;100.00;100987.42;1753796;81;20963;-58
2021/09/30 07:39:01;;;;;;;13.38;11.30;;;;;;;12.22;100.00;100985.52;1763865;81;20948;-58
2021/09/30 07:41:28;;;;;;;18.20;10.93;;;;;;;12.24;100.00;100990.65;1764094;81;21447;-58
2021/09/30 07:43:54;;;;;;;14.15;10.55;;;;;;;12.05;100.00;100980.45;1764056;81;20999;-58
2021/09/30 07:46:21;;;;;;;17.12;11.53;;;;;;;12.16;100.00;100978.34;1762578;81;21139;-59
2021/09/30 07:48:48;;;;;;;15.68;10.40;;;;;;;12.31;100.00;100983.30;1747593;82;20988;-59
2021/09/30 07:51:16;;;;;;;18.00;10.98;;;;;;;12.65;98.49;100977.69;1747894;82;20909;-58
2021/09/30 07:53:42;;;;;;;16.70;9.73;;;;;;;12.34;99.04;100982.02;1748987;82;20999;-57
2021/09/30 07:56:09;;;;;;;14.47;10.20;;;;;;;12.04;97.15;100984.74;1748828;82;20952;-58
2021/09/30 07:58:36;;;;;;;20.60;10.30;;;;;;;12.36;97.70;100983.42;1749965;81;21145;-57
2021/09/30 08:01:02;;;;;;;16.60;9.50;;;;;;;12.69;96.47;100986.14;1755487;81;21470;-58
2021/09/30 08:03:29;;;;;;;10.32;8.60;;;;;;;12.87;91.71;100972.55;1755851;81;20995;-57
2021/09/30 08:05:58;;;;;;;16.20;9.90;;;;;;;12.83;93.05;100982.67;1755776;81;20885;-58
2021/09/30 08:08:24;;;;;;;13.18;8.85;;;;;;;12.90;92.35;100986.08;1755716;81;20948;-62
2021/09/30 08:10:52;;;;;;;11.97;8.55;;;;;;;12.93;88.58;100978.05;1755938;81;21805;-58
2021/09/30 08:13:18;;;;;;;12.47;9.10;;;;;;;13.00;86.75;100976.05;1750788;81;21444;-58
2021/09/30 08:15:45;;;;;;;11.88;7.85;;;;;;;13.22;89.37;100977.09;1748234;82;21053;-58
2021/09/30 08:18:12;;;;;;;11.08;8.08;;;;;;;13.37;84.19;100982.02;1748948;80;20984;-58
2021/09/30 08:20:44;;;;;;;12.75;8.78;;;;;;;13.36;84.58;100982.27;1749184;82;20893;-59
2021/09/30 08:23:12;;;;;;;13.80;9.88;;;;;;;13.17;85.10;100986.41;1719303;83;21124;-60
2021/09/30 08:25:39;;;;;;;9.68;7.35;;;;;;;13.47;84.69;100986.30;1719527;83;20979;-59
2021/09/30 08:28:06;;;;;;;14.50;8.23;;;;;;;12.98;85.89;100980.33;1693867;83;20988;-59
2021/09/30 08:30:33;;;;;;;9.53;8.00;;;;;;;12.30;88.27;100975.44;1743782;82;21126;-59
2021/09/30 08:33:00;;;;;;;11.22;8.05;;;;;;;12.20;90.35;100974.69;1748720;82;20985;-59
2021/09/30 08:35:27;;;;;;;14.33;7.55;;;;;;;12.68;88.20;100975.58;1749859;80;21025;-58
2021/09/30 08:37:53;;;;;;;12.78;8.43;;;;;;;13.14;87.95;100976.64;1746915;82;20999;-59
2021/09/30 08:40:25;;;;;;;13.72;8.73;;;;;;;13.38;83.44;100978.81;1749742;81;21003;-59
2021/09/30 08:42:55;;;;;;;11.68;8.25;;;;;;;12.97;85.19;100977.34;1747813;81;21510;-60
2021/09/30 08:45:22;;;;;;;9.98;7.30;;;;;;;12.74;85.51;100982.22;1748582;81;20969;-59
2021/09/30 08:48:01;;;;;;;10.20;7.42;;;;;;;12.74;87.54;100981.38;1749740;80;21173;-58
2021/09/30 08:50:32;;;;;;;9.15;7.05;;;;;;;13.51;81.39;100982.05;1754431;80;20951;-59
2021/09/30 08:53:01;;;;;;;8.55;7.60;;;;;;;14.23;77.54;100979.91;1749019;82;21313;-59
2021/09/30 08:55:30;;;;;;;9.55;7.50;;;;;;;13.72;78.67;100981.13;1769738;80;21376;-59
2021/09/30 08:57:57;;;;;;;8.25;6.95;;;;;;;13.45;78.93;100975.47;1777776;80;26431;-59
2021/09/30 09:00:23;;;;;;;10.25;7.60;;;;;;;13.51;78.84;100976.66;1774898;80;21082;-58
2021/09/30 09:02:51;;;;;;;11.08;7.15;;;;;;;14.03;79.35;100981.17;1772362;80;20901;-58
2021/09/30 09:05:18;;;;;;;;;;;;;;;14.35;74.63;100980.66;1770249;80;20913;-59
2021/09/30 09:07:56;;;;;;;6.93;5.87;;;;;;;14.29;70.60;100985.70;1710569;82;20423;-59
2021/09/30 09:10:26;;;;;;;10.25;7.33;;;;;;;14.04;72.39;100984.71;1677261;84;21335;-60
2021/09/30 09:13:13;;;;;;;8.40;6.70;;;;;;;13.37;77.72;100975.28;1716335;83;21890;-59
2021/09/30 09:16:01;;;;;;;7.72;6.92;;;;;;;12.73;83.16;100977.05;1668533;85;21013;-59
2021/09/30 09:18:30;;;;;;;9.00;6.28;;;;;;;12.36;81.60;100979.39;1651421;87;20961;-59
2021/09/30 09:21:19;;;;;;;8.03;7.10;;;;;;;12.23;81.52;100976.91;1651224;87;21058;-59
2021/09/30 09:23:59;;;;;;;13.10;8.23;;;;;;;12.26;83.98;100978.32;1611514;88;20965;-59
2021/09/30 09:26:37;;;;;;;15.18;6.97;;;;;;;12.33;83.38;100973.66;1608036;88;21140;-58
2021/09/30 09:29:13;;;;;;;10.45;7.20;;;;;;;12.05;84.69;100969.69;1627239;87;21072;-58
2021/09/30 09:31:47;;;;;;;12.88;7.72;;;;;;;12.12;85.84;100971.77;1623641;88;21016;-58
2021/09/30 09:34:29;;;;;;;14.78;7.42;;;;;;;12.07;85.71;100973.52;1626967;87;21107;-57
2021/09/30 09:37:31;;;;;;;11.30;7.50;;;;;;;11.91;84.48;100973.64;1634741;87;20941;-58
2021/09/30 09:39:58;;;;;;;12.25;8.30;;;;;;;11.81;85.15;100975.50;1627942;87;21226;-58
2021/09/30 09:42:30;;;;;;;11.28;7.47;;;;;;;11.63;85.55;100970.95;1628997;87;21488;-58
2021/09/30 09:45:13;;;;;;;10.03;7.30;;;;;;;11.82;87.51;100974.97;1632014;87;21432;-58
2021/09/30 09:47:43;;;;;;;13.30;7.08;;;;;;;11.77;87.16;100976.45;1651351;87;21032;-58
2021/09/30 09:50:22;;;;;;;17.40;7.65;;;;;;;11.70;83.12;100978.41;1629245;87;21539;-58
2021/09/30 09:52:59;;;;;;;9.55;7.25;;;;;;;11.67;84.98;100978.05;1692674;84;21113;-58
2021/09/30 09:55:34;;;;;;;13.17;8.77;;;;;;;11.68;87.30;100982.37;1692892;84;21038;-58
2021/09/30 09:58:12;;;;;;;18.32;8.48;;;;;;;11.68;88.40;100981.84;1692915;84;20906;-58
2021/09/30 10:00:58;;;;;;;10.45;7.95;;;;;;;11.61;87.81;100983.79;1693622;84;20926;-58
2021/09/30 10:03:30;;;;;;;8.70;6.78;;;;;;;11.58;88.73;100983.72;1693722;84;20974;-58
2021/09/30 10:05:59;;;;;;;10.90;7.83;;;;;;;11.49;88.38;100985.59;1693168;84;21085;-58
2021/09/30 10:08:25;;;;;;;12.90;7.35;;;;;;;11.58;87.59;100977.53;1693349;84;20953;-58
2021/09/30 10:10:55;;;;;;;13.55;7.45;;;;;;;11.61;86.24;100985.66;1693396;84;21034;-58
2021/09/30 10:13:26;;;;;;;11.03;7.40;;;;;;;11.71;86.32;100984.11;1693338;84;21456;-58
2021/09/30 10:15:55;;;;;;;9.38;6.58;;;;;;;11.74;85.84;100984.98;1693010;84;20961;-58
2021/09/30 10:18:26;;;;;;;8.33;7.17;;;;;;;11.72;84.61;100985.73;1693753;84;21017;-58
2021/09/30 10:20:56;;;;;;;10.10;6.80;;;;;;;11.73;84.93;100983.86;1693469;84;21047;-59
2021/09/30 10:23:28;;;;;;;11.08;7.95;;;;;;;11.66;85.63;100979.93;1693289;84;20958;-59
2021/09/30 10:25:57;;;;;;;9.13;6.50;;;;;;;11.67;86.35;100976.18;1692525;84;21502;-59
2021/09/30 10:28:25;;;;;;;10.68;7.25;;;;;;;11.71;87.36;100970.66;1689487;84;21505;-59
2021/09/30 10:30:53;;;;;;;15.40;9.10;;;;;;;11.74;88.23;100978.80;1663171;84;21126;-57
2021/09/30 10:33:40;;;;;;;12.43;7.50;;;;;;;11.83;87.83;100979.29;1685441;84;20952;-58
2021/09/30 10:36:48;;;;;;;10.53;6.87;;;;;;;11.84;84.57;100973.69;1691315;84;20996;-58
2021/09/30 10:39:23;;;;;;;7.50;6.80;;;;;;;11.74;85.00;100976.11;1707091;82;21554;-60
2021/09/30 10:42:02;;;;;;;14.45;6.70;;;;;;;11.86;82.74;100973.47;1697117;82;20973;-60
2021/09/30 10:44:35;;;;;;;10.08;7.42;;;;;;;11.94;81.85;100970.48;1715359;82;20946;-60
2021/09/30 10:47:07;;;;;;;12.85;9.10;;;;;;;11.97;82.86;100972.19;1692843;83;20903;-58
2021/09/30 10:49:43;;;;;;;11.53;7.83;;;;;;;11.92;85.13;100975.27;1664053;84;21075;-59
2021/09/30 10:52:35;;;;;;;13.08;7.97;;;;;;;12.00;85.16;100973.59;1670407;81;21005;-58
2021/09/30 10:55:11;;;;;;;11.63;8.50;;;;;;;11.85;85.99;100970.47;1657868;86;21068;-60
2021/09/30 10:57:46;;;;;;;12.30;9.00;;;;;;;11.74;85.15;100967.50;1671690;84;21132;-59
2021/09/30 11:00:23;;;;;;;12.00;8.68;;;;;;;11.55;82.18;100964.54;1685222;83;21087;-60
2021/09/30 11:03:13;;;;;;;13.83;8.30;;;;;;;11.62;82.72;100966.63;1711424;83;21087;-60
2021/09/30 11:05:42;;;;;;;12.10;7.78;;;;;;;11.72;82.03;100962.87;1748521;81;20935;-58
2021/09/30 11:08:27;;;;;;;12.47;9.18;;;;;;;11.77;82.21;100959.50;1746012;81;21055;-58
2021/09/30 11:11:11;;;;;;;13.32;8.48;;;;;;;11.90;82.57;100963.91;1689679;82;21718;-58
2021/09/30 11:13:50;;;;;;;18.62;8.63;;;;;;;11.94;81.68;100957.03;1695942;83;21075;-58
2021/09/30 11:16:20;;;;;;;11.88;8.20;;;;;;;12.05;79.55;100955.42;1656395;85;21021;-59
2021/09/30 11:18:52;;;;;;;15.18;8.80;;;;;;;11.95;79.09;100958.13;1703523;83;21046;-60
2021/09/30 11:21:37;;;;;;;10.70;8.68;;;;;;;12.12;80.20;100956.96;1694965;83;20995;-58
2021/09/30 11:24:14;;;;;;;11.85;9.30;;;;;;;12.26;80.92;100954.09;1704498;82;21132;-59
2021/09/30 11:26:56;;;;;;;14.03;10.00;;;;;;;12.34;78.89;100955.09;1696149;83;21326;-60
2021/09/30 11:29:26;;;;;;;16.62;9.45;;;;;;;12.41;76.35;100958.50;1669997;84;21479;-59
2021/09/30 11:32:04;;;;;;;15.20;10.25;;;;;;;12.42;77.05;100954.24;1657891;86;21054;-58
2021/09/30 11:34:46;;;;;;;16.93;12.53;;;;;;;12.33;77.25;100946.73;1660719;83;21054;-58
2021/09/30 11:37:30;;;;;;;15.50;13.62;;;;;;;12.25;76.50;100942.51;1708085;83;21850;-59
2021/09/30 11:40:11;;;;;;;15.53;9.73;;;;;;;12.11;77.16;100949.95;1696441;82;21051;-60
2021/09/30 11:42:46;;;;;;;15.55;12.45;;;;;;;11.84;77.90;100945.98;1678484;83;21134;-58
2021/09/30 11:45:18;;;;;;;17.75;10.03;;;;;;;11.70;78.25;100940.75;1743473;81;21041;-59
2021/09/30 11:47:48;;;;;;;15.28;8.78;;;;;;;11.98;76.93;100946.13;1732019;80;21360;-59
2021/09/30 11:50:28;;;;;;;10.95;8.80;;;;;;;12.78;73.96;100943.48;1761172;80;21715;-58
2021/09/30 11:53:08;;;;;;;22.77;11.85;;;;;;;13.18;71.89;100940.05;1756817;80;21029;-58
2021/09/30 11:55:41;;;;;;;9.20;8.20;;;;;;;12.86;72.79;100948.02;1749953;80;21486;-58
2021/09/30 11:58:04;;;;;;;14.70;10.18;;;;;;;12.43;72.80;100945.10;1746965;80;21039;-59
2021/09/30 12:00:37;;;;;;;20.00;9.35;;;;;;;12.13;75.87;100941.66;1751821;81;20957;-59
2021/09/30 12:03:06;;;;;;;10.70;8.95;;;;;;;12.01;76.27;100936.23;1751670;81;21098;-59
2021/09/30 12:05:35;;;;;;;;;;;;;;;11.93;75.60;100936.05;1722398;83;21415;-58
2021/09/30 12:08:03;;;;;;;11.08;7.67;;;;;;;12.57;75.17;100935.47;1704759;82;20138;-58
2021/09/30 12:10:32;;;;;;;10.88;6.78;;;;;;;13.16;70.17;100929.52;1705210;83;20974;-59
2021/09/30 12:12:59;;;;;;;8.93;6.90;;;;;;;13.39;69.77;100930.02;1713226;83;21455;-59
2021/09/30 12:15:26;;;;;;;10.78;7.50;;;;;;;13.91;66.34;100932.66;1713229;83;21156;-59
2021/09/30 12:17:55;;;;;;;8.95;7.47;;;;;;;14.48;64.82;100932.27;1709717;83;21430;-60
2021/09/30 12:20:21;;;;;;;8.70;5.95;;;;;;;14.84;62.19;100921.47;1709923;82;20932;-59
2021/09/30 12:22:53;;;;;;;8.18;6.55;;;;;;;15.32;61.25;100924.01;1712161;82;20993;-59
2021/09/30 12:25:27;;;;;;;9.30;6.80;;;;;;;14.85;61.18;100923.66;1712976;83;20978;-59
2021/09/30 12:27:55;;;;;;;8.98;6.85;;;;;;;14.41;61.98;100920.80;1712055;83;21126;-59
2021/09/30 12:30:25;;;;;;;8.03;6.05;;;;;;;14.27;62.10;100906.26;1713190;83;21424;-58
2021/09/30 12:33:00;;;;;;;10.32;6.67;;;;;;;14.27;62.68;100914.36;1716312;82;20945;-59
2021/09/30 12:35:32;;;;;;;10.50;6.37;;;;;;;13.90;62.66;100899.16;1719294;83;21432;-59
2021/09/30 12:38:02;;;;;;;8.00;6.03;;;;;;;13.87;65.17;100901.00;1712328;83;20971;-60
2021/09/30 12:40:37;;;;;;;8.80;6.03;;;;;;;14.24;62.30;100903.24;1707651;82;21169;-59
2021/09/30 12:43:14;;;;;;;10.08;6.72;;;;;;;14.56;62.72;100911.61;1699347;83;20979;-59
2021/09/30 12:45:47;;;;;;;8.10;6.05;;;;;;;14.99;62.67;100904.13;1713765;83;20942;-59
2021/09/30 12:48:21;;;;;;;10.00;7.08;;;;;;;14.90;59.78;100893.45;1713828;83;21103;-60
2021/09/30 12:50:51;;;;;;;9.15;6.62;;;;;;;14.93;59.25;100895.65;1731838;81;21053;-59
2021/09/30 12:53:21;;;;;;;40.10;24.12;;;;;;;14.89;60.21;100890.45;1735869;81;21121;-58
2021/09/30 12:55:50;;;;;;;8.90;6.50;;;;;;;14.99;59.12;100889.27;1713503;81;20994;-58
2021/09/30 12:58:33;;;;;;;;;;;;;;;15.03;58.22;100886.05;1716785;81;21491;-58
2021/09/30 13:01:22;;;;;;;10.38;7.53;;;;;;;14.99;59.84;100884.36;1684517;83;20105;-58
2021/09/30 13:04:21;;;;;;;7.30;6.28;;;;;;;14.86;59.37;100877.98;1689457;83;21092;-58
2021/09/30 13:07:01;;;;;;;10.58;7.12;;;;;;;14.64;58.69;100880.65;1683048;83;21137;-59
2021/09/30 13:09:37;;;;;;;9.08;7.65;;;;;;;14.61;59.53;100875.21;1676039;85;20972;-58
2021/09/30 13:12:16;;;;;;;8.83;6.53;;;;;;;14.46;59.68;100883.06;1674010;85;21496;-58
2021/09/30 13:14:53;;;;;;;9.83;7.35;;;;;;;14.22;60.52;100872.42;1683813;83;20937;-58
2021/09/30 13:17:27;;;;;;;9.80;6.22;;;;;;;14.31;61.54;100876.89;1690262;83;20988;-58
2021/09/30 13:20:30;;;;;;;8.98;7.83;;;;;;;14.30;61.67;100869.30;1701698;82;21020;-58
2021/09/30 13:22:50;;;;;;;12.53;6.70;;;;;;;14.53;61.11;100872.91;1679644;83;21052;-59
2021/09/30 13:25:18;;;;;;;10.23;6.53;;;;;;;14.39;60.00;100871.07;1635370;83;20985;-59
2021/09/30 13:27:49;;;;;;;9.68;7.03;;;;;;;14.10;60.43;100871.69;1674028;83;20957;-60
2021/09/30 13:30:18;;;;;;;8.45;7.60;;;;;;;13.77;61.41;100865.70;1669943;83;21048;-58
2021/09/30 13:32:45;;;;;;;8.60;6.92;;;;;;;13.60;62.45;100856.26;1679727;83;21148;-58
2021/09/30 13:35:13;;;;;;;8.05;7.22;;;;;;;13.45;62.91;100857.61;1668458;83;20995;-58
2021/09/30 13:37:41;;;;;;;18.60;9.03;;;;;;;13.54;63.05;100855.86;1686870;83;20994;-58
2021/09/30 13:40:09;;;;;;;13.58;7.22;;;;;;;13.86;64.06;100861.02;1679518;83;20930;-58
2021/09/30 13:42:38;;;;;;;13.45;9.58;;;;;;;14.13;62.48;100857.69;1709559;83;20991;-58
2021/09/30 13:45:08;;;;;;;8.08;6.70;;;;;;;14.10;63.19;100850.89;1687440;83;21158;-58
2021/09/30 13:47:37;;;;;;;9.78;6.55;;;;;;;14.12;61.91;100861.46;1713341;83;20968;-58
2021/09/30 13:50:05;;;;;;;8.08;5.87;;;;;;;14.07;60.73;100859.50;1712966;83;21070;-58
2021/09/30 13:52:33;;;;;;;12.40;8.13;;;;;;;14.11;61.69;100857.95;1672644;84;21020;-60
2021/09/30 13:55:00;;;;;;;14.38;8.55;;;;;;;13.71;62.35;100848.08;1680896;84;21004;-58
2021/09/30 13:57:33;;;;;;;9.55;6.97;;;;;;;13.75;62.88;100848.97;1689566;84;21025;-58
2021/09/30 13:59:58;;;;;;;8.53;6.95;;;;;;;13.71;63.32;100848.08;1691736;84;20973;-58
2021/09/30 14:02:25;;;;;;;13.40;8.93;;;;;;;13.66;63.26;100844.48;1671239;84;21296;-58
2021/09/30 14:04:52;;;;;;;20.90;7.92;;;;;;;13.55;65.64;100842.65;1673832;84;20937;-59
2021/09/30 14:07:18;;;;;;;10.23;7.22;;;;;;;13.65;65.64;100834.23;1670221;84;21040;-59
2021/09/30 14:09:46;;;;;;;21.37;8.40;;;;;;;13.55;63.77;100827.30;1667991;84;22253;-58
2021/09/30 14:12:12;;;;;;;15.85;7.80;;;;;;;13.48;65.19;100833.37;1664718;84;20964;-57
2021/09/30 14:14:40;;;;;;;14.20;10.05;;;;;;;13.31;64.53;100828.47;1675280;84;27410;-58
2021/09/30 14:17:07;;;;;;;12.88;9.98;;;;;;;13.14;65.15;100833.23;1671787;84;21007;-58
2021/09/30 14:19:34;;;;;;;13.18;9.18;;;;;;;13.15;66.01;100836.74;1659686;84;21104;-59
2021/09/30 14:22:03;;;;;;;18.65;11.85;;;;;;;13.06;66.53;100834.97;1657634;84;26741;-58
2021/09/30 14:24:32;;;;;;;24.50;14.03;;;;;;;13.03;66.75;100836.27;1675694;84;20890;-58
2021/09/30 14:27:00;;;;;;;30.20;10.40;;;;;;;13.06;67.61;100834.44;1674515;85;20990;-57